createdAt,value
2023-10-11T00:02:41.892Z,98634.13
2023-10-11T00:05:56.388Z,98622.13
2023-10-11T00:08:59.166Z,98621.66
2023-10-11T00:12:13.376Z,98619.69
2023-10-11T00:15:16.298Z,98611.09
2023-10-11T00:18:29.122Z,98610.56
2023-10-11T00:21:44.288Z,98613.22
2023-10-11T00:24:47.036Z,98616.66
2023-10-11T00:27:49.701Z,98620.28
2023-10-11T00:30:53.905Z,98612.19
2023-10-11T00:33:56.714Z,98609.63
2023-10-11T00:37:00.058Z,98615.25
2023-10-11T00:40:03.998Z,98617.06
2023-10-11T00:43:08.249Z,98609.66
2023-10-11T00:46:11.217Z,98613.28
2023-10-11T00:49:14.155Z,98618.91
2023-10-11T00:52:16.897Z,98615.81
2023-10-11T00:55:21.760Z,98613.00
2023-10-11T00:58:25.079Z,98605.44
2023-10-11T01:01:28.079Z,98611.94
2023-10-11T01:04:40.785Z,98608.78
2023-10-11T01:07:46.134Z,98604.81
2023-10-11T01:10:49.294Z,98611.25
2023-10-11T01:13:55.046Z,98606.75
2023-10-11T01:16:59.738Z,98612.19
2023-10-11T01:20:03.323Z,98610.84
2023-10-11T01:23:06.268Z,98608.03
2023-10-11T01:26:09.665Z,98614.63
2023-10-11T01:29:12.446Z,98614.28
2023-10-11T01:32:15.167Z,98602.75
2023-10-11T01:35:21.321Z,98604.25
2023-10-11T01:38:25.650Z,98611.66
2023-10-11T01:41:28.653Z,98617.13
2023-10-11T01:44:33.230Z,98612.19
2023-10-11T01:47:36.582Z,98615.31
2023-10-11T01:50:39.339Z,98614.13
2023-10-11T01:53:42.521Z,98609.34
2023-10-11T01:56:46.705Z,98616.63
2023-10-11T01:59:49.453Z,98620.94
2023-10-11T02:02:58.325Z,98626.56
2023-10-11T02:06:06.091Z,98614.06
2023-10-11T02:09:10.833Z,98614.38
2023-10-11T02:12:13.640Z,98631.88
2023-10-11T02:15:31.380Z,98633.19
2023-10-11T02:18:34.537Z,98617.72
2023-10-11T02:21:38.532Z,98621.19
2023-10-11T02:24:41.445Z,98622.50
2023-10-11T02:27:44.658Z,98627.47
2023-10-11T02:30:47.333Z,98622.06
2023-10-11T02:33:53.421Z,98618.69
2023-10-11T02:37:12.247Z,98621.50
2023-10-11T02:40:18.088Z,98604.53
2023-10-11T02:43:22.022Z,98604.69
2023-10-11T02:46:25.480Z,98605.13
2023-10-11T02:49:33.631Z,98601.88
2023-10-11T02:52:40.875Z,98595.91
2023-10-11T02:55:43.380Z,98598.66
2023-10-11T02:58:46.567Z,98595.22
2023-10-11T03:02:01.004Z,98600.13
2023-10-11T03:05:09.352Z,98596.50
2023-10-11T03:08:15.102Z,98591.38
2023-10-11T03:11:19.266Z,98590.97
2023-10-11T03:14:22.004Z,98593.78
2023-10-11T03:17:24.954Z,98596.25
2023-10-11T03:20:28.357Z,98594.00
2023-10-11T03:23:31.058Z,98586.06
2023-10-11T03:26:34.550Z,98591.88
2023-10-11T03:29:37.241Z,98577.34
2023-10-11T03:32:40.139Z,98579.00
2023-10-11T03:35:45.306Z,98576.69
2023-10-11T03:38:53.338Z,98578.03
2023-10-11T03:42:16.887Z,98566.66
2023-10-11T03:45:22.356Z,98565.81
2023-10-11T03:48:30.012Z,98563.97
2023-10-11T03:51:33.741Z,98575.66
2023-10-11T03:54:38.250Z,98579.59
2023-10-11T03:57:44.943Z,98577.91
2023-10-11T04:00:47.916Z,98574.94
2023-10-11T04:03:51.191Z,98573.94
2023-10-11T04:06:59.441Z,98571.81
2023-10-11T04:10:10.876Z,98580.03
2023-10-11T04:13:16.732Z,98582.00
2023-10-11T04:16:19.563Z,98572.06
2023-10-11T04:19:23.035Z,98575.66
2023-10-11T04:22:25.809Z,98580.63
2023-10-11T04:25:34.162Z,98580.44
2023-10-11T04:28:43.163Z,98575.66
2023-10-11T04:32:15.885Z,98580.34
2023-10-11T04:35:26.549Z,98570.50
2023-10-11T04:38:34.456Z,98577.16
2023-10-11T04:41:39.315Z,98569.88
2023-10-11T04:44:48.737Z,98567.41
2023-10-11T04:47:52.753Z,98558.72
2023-10-11T04:51:23.894Z,98560.66
2023-10-11T04:54:43.756Z,98566.59
2023-10-11T04:58:05.766Z,98572.22
2023-10-11T05:01:13.403Z,98590.16
2023-10-11T05:04:17.223Z,98580.28
2023-10-11T05:07:23.529Z,98588.25
2023-10-11T05:10:29.117Z,98586.59
2023-10-11T05:13:37.982Z,98595.72
2023-10-11T05:16:46.434Z,98586.50
2023-10-11T05:20:06.830Z,98591.69
2023-10-11T05:23:13.329Z,98591.78
2023-10-11T05:26:38.551Z,98596.69
2023-10-11T05:30:02.003Z,98603.75
2023-10-11T05:33:05.227Z,98617.25
2023-10-11T05:36:34.283Z,98609.41
2023-10-11T05:39:56.027Z,98618.16
2023-10-11T05:43:17.665Z,98624.94
2023-10-11T05:46:39.948Z,98631.25
2023-10-11T05:50:02.664Z,98624.88
2023-10-11T05:53:05.380Z,98626.91
2023-10-11T05:56:10.295Z,98640.34
2023-10-11T05:59:15.811Z,98635.78
2023-10-11T06:02:23.808Z,98635.19
2023-10-11T06:05:26.594Z,98633.50
2023-10-11T06:08:32.813Z,98634.50
2023-10-11T06:11:38.463Z,98638.56
2023-10-11T06:14:41.187Z,98641.72
2023-10-11T06:17:44.042Z,98631.78
2023-10-11T06:21:02.959Z,98635.09
2023-10-11T06:24:05.957Z,98633.69
2023-10-11T06:27:27.029Z,98636.63
2023-10-11T06:30:29.852Z,98639.22
2023-10-11T06:33:35.930Z,98643.16
2023-10-11T06:36:38.794Z,98643.16
2023-10-11T06:39:44.559Z,98647.81
2023-10-11T06:42:47.288Z,98651.13
2023-10-11T06:45:51.200Z,98649.88
2023-10-11T06:48:56.654Z,98652.69
2023-10-11T06:51:59.370Z,98656.75
2023-10-11T06:55:22.391Z,98658.25
2023-10-11T06:58:25.104Z,98657.69
2023-10-11T07:01:32.269Z,98659.41
2023-10-11T07:04:38.364Z,98656.31
2023-10-11T07:07:52.785Z,98659.16
2023-10-11T07:11:08.842Z,98663.78
2023-10-11T07:14:17.651Z,98653.09
2023-10-11T07:17:28.629Z,98661.31
2023-10-11T07:20:57.874Z,98659.19
2023-10-11T07:24:27.631Z,98656.41
2023-10-11T07:27:54.552Z,98656.63
2023-10-11T07:30:58.236Z,98663.25
2023-10-11T07:34:08.510Z,98654.81
2023-10-11T07:37:21.564Z,98658.03
2023-10-11T07:40:45.874Z,98649.59
2023-10-11T07:43:58.196Z,98654.38
2023-10-11T07:47:27.445Z,98655.34
2023-10-11T07:50:39.961Z,98660.50
2023-10-11T07:53:49.388Z,98659.59
2023-10-11T07:57:02.616Z,98666.59
2023-10-11T08:00:32.247Z,98663.06
2023-10-11T08:03:45.782Z,98665.97
2023-10-11T08:10:52.854Z,98657.97
2023-10-11T08:14:05.295Z,98661.16
2023-10-11T08:17:17.787Z,98655.41
2023-10-11T08:20:30.576Z,98652.59
2023-10-11T08:23:56.916Z,98661.16
2023-10-11T08:27:13.067Z,98659.19
2023-10-11T08:30:25.392Z,98659.88
2023-10-11T08:33:37.448Z,98663.06
2023-10-11T08:36:46.537Z,98664.22
2023-10-11T08:40:01.453Z,98660.91
2023-10-11T08:43:11.170Z,98660.25
2023-10-11T08:46:20.451Z,98657.59
2023-10-11T08:52:44.624Z,98658.97
2023-10-11T08:55:58.519Z,98650.03
2023-10-11T08:59:28.110Z,98651.53
2023-10-11T09:02:57.616Z,98645.59
2023-10-11T09:06:06.044Z,98644.09
2023-10-11T09:09:35.729Z,98647.25
2023-10-11T09:12:47.839Z,98650.25
2023-10-11T09:15:59.463Z,98647.91
2023-10-11T09:19:13.056Z,98646.44
2023-10-11T09:22:24.570Z,98641.31
2023-10-11T09:25:35.233Z,98653.53
2023-10-11T09:28:42.796Z,98647.91
2023-10-11T09:32:06.581Z,98652.66
2023-10-11T09:35:29.665Z,98643.66
2023-10-11T09:38:40.609Z,98645.00
2023-10-11T09:41:45.844Z,98643.47
2023-10-11T09:44:48.577Z,98648.38
2023-10-11T09:47:57.183Z,98640.72
2023-10-11T09:51:00.764Z,98643.09
2023-10-11T09:54:08.728Z,98640.75
2023-10-11T09:57:26.696Z,98647.69
2023-10-11T10:01:07.950Z,98643.41
2023-10-11T10:04:13.660Z,98644.91
2023-10-11T10:07:25.170Z,98635.28
2023-10-11T10:10:54.293Z,98630.50
2023-10-11T10:14:25.985Z,98623.88
2023-10-11T10:17:30.136Z,98633.78
2023-10-11T10:20:36.168Z,98627.34
2023-10-11T10:23:44.070Z,98630.34
2023-10-11T10:26:47.116Z,98626.06
2023-10-11T10:30:01.715Z,98616.84
2023-10-11T10:33:22.714Z,98608.50
2023-10-11T10:36:30.839Z,98616.22
2023-10-11T10:40:00.170Z,98607.06
2023-10-11T10:43:16.302Z,98603.59
2023-10-11T10:46:19.524Z,98597.56
2023-10-11T10:49:25.010Z,98604.41
2023-10-11T10:52:32.165Z,98592.28
2023-10-11T10:55:36.348Z,98598.25
2023-10-11T10:58:41.168Z,98594.16
2023-10-11T11:01:48.013Z,98599.97
2023-10-11T11:04:51.417Z,98595.78
2023-10-11T11:07:54.288Z,98593.84
2023-10-11T11:11:24.500Z,98576.44
2023-10-11T11:14:27.281Z,98575.56
2023-10-11T11:17:47.991Z,98569.91
2023-10-11T11:20:53.245Z,98564.97
2023-10-11T11:23:56.030Z,98561.34
2023-10-11T11:26:59.390Z,98552.22
2023-10-11T11:30:35.519Z,98547.63
2023-10-11T11:33:49.658Z,98543.16
2023-10-11T11:37:14.109Z,98539.28
2023-10-11T11:40:26.271Z,98536.75
2023-10-11T11:43:35.644Z,98538.09
2023-10-11T11:46:38.393Z,98541.72
2023-10-11T11:49:41.144Z,98539.41
2023-10-11T11:52:46.396Z,98549.13
2023-10-11T11:55:49.619Z,98541.06
2023-10-11T11:58:55.938Z,98535.09
2023-10-11T12:02:01.311Z,98539.31
2023-10-11T12:05:06.144Z,98531.59
2023-10-11T12:08:13.592Z,98518.06
2023-10-11T12:11:16.975Z,98515.47
2023-10-11T12:14:24.375Z,98510.09
2023-10-11T12:17:27.338Z,98521.00
2023-10-11T12:20:35.634Z,98527.09
2023-10-11T12:23:45.627Z,98522.63
2023-10-11T12:26:49.120Z,98515.22
2023-10-11T12:30:04.983Z,98515.19
2023-10-11T12:33:08.601Z,98516.63
2023-10-11T12:36:12.404Z,98523.03
2023-10-11T12:39:26.328Z,98523.19
2023-10-11T12:42:29.407Z,98510.47
2023-10-11T12:45:32.226Z,98515.19
2023-10-11T12:48:35.514Z,98516.03
2023-10-11T12:51:38.351Z,98519.25
2023-10-11T12:54:43.364Z,98510.19
2023-10-11T12:57:46.192Z,98504.47
2023-10-11T13:01:00.337Z,98504.03
2023-10-11T13:04:19.850Z,98507.38
2023-10-11T13:07:22.836Z,98511.09
2023-10-11T13:10:25.692Z,98502.50
2023-10-11T13:13:31.603Z,98498.97
2023-10-11T13:16:35.666Z,98489.72
2023-10-11T13:19:38.451Z,98490.78
2023-10-11T13:22:41.705Z,98490.34
2023-10-11T13:25:46.089Z,98488.91
2023-10-11T13:28:55.138Z,98494.88
2023-10-11T13:31:59.192Z,98494.22
2023-10-11T13:35:02.070Z,98483.56
2023-10-11T13:38:13.330Z,98480.69
2023-10-11T13:41:17.847Z,98479.88
2023-10-11T13:44:27.164Z,98465.09
2023-10-11T13:47:34.683Z,98467.53
2023-10-11T13:50:39.155Z,98467.53
2023-10-11T13:53:44.972Z,98459.13
2023-10-11T13:56:47.771Z,98451.94
2023-10-11T13:59:52.444Z,98450.88
2023-10-11T14:03:15.381Z,98449.81
2023-10-11T14:06:24.099Z,98434.66
2023-10-11T14:09:31.838Z,98436.75
2023-10-11T14:12:36.537Z,98429.97
2023-10-11T14:15:39.837Z,98428.50
2023-10-11T14:18:42.799Z,98431.81
2023-10-11T14:21:49.304Z,98420.53
2023-10-11T14:24:53.435Z,98420.75
2023-10-11T14:27:56.291Z,98420.56
2023-10-11T14:31:01.437Z,98417.25
2023-10-11T14:34:05.975Z,98422.22
2023-10-11T14:37:13.597Z,98417.09
2023-10-11T14:40:17.460Z,98418.31
2023-10-11T14:43:20.348Z,98409.69
2023-10-11T14:46:24.453Z,98422.22
2023-10-11T14:49:30.057Z,98419.75
2023-10-11T14:52:32.885Z,98422.59
2023-10-11T14:55:36.605Z,98419.13
2023-10-11T14:58:39.641Z,98417.50
2023-10-11T15:01:42.631Z,98424.03
2023-10-11T15:04:45.657Z,98428.97
2023-10-11T15:07:53.346Z,98422.56
2023-10-11T15:10:56.384Z,98418.25
2023-10-11T15:14:01.154Z,98417.44
2023-10-11T15:17:04.268Z,98427.34
2023-10-11T15:20:10.830Z,98422.22
2023-10-11T15:23:13.434Z,98421.13
2023-10-11T15:26:21.204Z,98424.84
2023-10-11T15:29:24.487Z,98420.72
2023-10-11T15:32:27.344Z,98432.84
2023-10-11T15:35:30.138Z,98426.28
2023-10-11T15:38:34.180Z,98420.28
2023-10-11T15:41:38.368Z,98429.09
2023-10-11T15:44:41.100Z,98430.91
2023-10-11T15:47:48.492Z,98434.53
2023-10-11T15:51:10.826Z,98432.97
2023-10-11T15:54:13.634Z,98426.50
2023-10-11T15:57:16.399Z,98420.13
2023-10-11T16:00:21.727Z,98429.13
2023-10-11T16:03:25.733Z,98432.09
2023-10-11T16:06:28.608Z,98420.31
2023-10-11T16:09:32.788Z,98420.16
2023-10-11T16:12:35.447Z,98417.75
2023-10-11T16:15:38.261Z,98426.63
2023-10-11T16:18:42.637Z,98432.94
2023-10-11T16:21:45.474Z,98428.16
2023-10-11T16:24:48.324Z,98432.75
2023-10-11T16:27:51.839Z,98430.78
2023-10-11T16:30:57.256Z,98428.06
2023-10-11T16:34:00.130Z,98427.00
2023-10-11T16:37:06.622Z,98431.94
2023-10-11T16:40:17.532Z,98440.56
2023-10-11T16:43:23.751Z,98437.16
2023-10-11T16:49:32.423Z,98445.53
2023-10-11T16:52:35.097Z,98443.41
2023-10-11T16:55:37.872Z,98446.47
2023-10-11T16:58:42.008Z,98443.72
2023-10-11T17:01:46.383Z,98447.72
2023-10-11T17:04:50.734Z,98451.66
2023-10-11T17:07:53.952Z,98449.38
2023-10-11T17:10:59.125Z,98445.88
2023-10-11T17:14:01.895Z,98448.25
2023-10-11T17:17:05.486Z,98444.06
2023-10-11T17:20:18.743Z,98448.41
2023-10-11T17:23:21.520Z,98451.16
2023-10-11T17:26:25.844Z,98453.50
2023-10-11T17:29:29.213Z,98445.97
2023-10-11T17:32:32.695Z,98440.47
2023-10-11T17:35:38.137Z,98440.34
2023-10-11T17:38:41.044Z,98426.81
2023-10-11T17:41:44.564Z,98437.31
2023-10-11T17:44:47.882Z,98430.06
2023-10-11T17:47:53.945Z,98424.69
2023-10-11T17:50:57.604Z,98424.53
2023-10-11T17:54:03.998Z,98429.41
2023-10-11T17:57:07.672Z,98426.53
2023-10-11T18:00:18.553Z,98425.75
2023-10-11T18:03:21.579Z,98428.47
2023-10-11T18:06:24.820Z,98426.19
2023-10-11T18:09:28.378Z,98424.88
2023-10-11T18:12:32.733Z,98425.59
2023-10-11T18:15:35.684Z,98435.84
2023-10-11T18:18:38.737Z,98432.59
2023-10-11T18:21:48.201Z,98432.25
2023-10-11T18:24:51.755Z,98440.00
2023-10-11T18:27:58.550Z,98447.16
2023-10-11T18:31:08.003Z,98442.66
2023-10-11T18:34:10.706Z,98441.25
2023-10-11T18:37:13.707Z,98437.56
2023-10-11T18:40:22.126Z,98436.63
2023-10-11T18:43:29.291Z,98437.91
2023-10-11T18:46:32.829Z,98438.47
2023-10-11T18:49:35.856Z,98446.13
2023-10-11T18:52:39.004Z,98433.41
2023-10-11T18:55:44.621Z,98441.00
2023-10-11T18:58:48.895Z,98439.38
2023-10-11T19:01:51.884Z,98432.63
2023-10-11T19:04:58.334Z,98429.66
2023-10-11T19:08:01.635Z,98427.84
2023-10-11T19:11:11.794Z,98437.13
2023-10-11T19:14:15.364Z,98438.28
2023-10-11T19:17:18.829Z,98441.25
2023-10-11T19:20:27.117Z,98443.56
2023-10-11T19:23:40.281Z,98441.44
2023-10-11T19:26:45.717Z,98443.13
2023-10-11T19:29:48.527Z,98443.63
2023-10-11T19:32:52.550Z,98447.78
2023-10-11T19:36:08.902Z,98442.81
2023-10-11T19:39:14.554Z,98432.41
2023-10-11T19:42:17.885Z,98426.31
2023-10-11T19:45:24.772Z,98430.09
2023-10-11T19:48:28.324Z,98425.63
2023-10-11T19:51:31.697Z,98419.38
2023-10-11T19:54:34.819Z,98416.75
2023-10-11T19:57:41.089Z,98420.03
2023-10-11T20:00:44.364Z,98417.72
2023-10-11T20:03:53.769Z,98419.41
2023-10-11T20:06:57.383Z,98412.44
2023-10-11T20:10:00.609Z,98423.19
2023-10-11T20:13:04.189Z,98435.25
2023-10-11T20:16:12.978Z,98446.47
2023-10-11T20:19:18.880Z,98438.53
2023-10-11T20:22:21.576Z,98445.50
2023-10-11T20:25:24.910Z,98437.00
2023-10-11T20:28:27.739Z,98440.00
2023-10-11T20:31:30.562Z,98430.47
2023-10-11T20:34:33.374Z,98429.94
2023-10-11T20:37:36.628Z,98423.81
2023-10-11T20:40:42.420Z,98428.28
2023-10-11T20:43:45.332Z,98421.50
2023-10-11T20:46:52.325Z,98421.34
2023-10-11T20:49:57.133Z,98421.50
2023-10-11T20:53:04.282Z,98414.59
2023-10-11T20:56:08.279Z,98413.75
2023-10-11T20:59:16.952Z,98414.22
2023-10-11T21:02:19.636Z,98420.69
2023-10-11T21:05:25.654Z,98416.41
2023-10-11T21:08:29.112Z,98407.28
2023-10-11T21:11:40.555Z,98410.44
2023-10-11T21:14:50.286Z,98403.84
2023-10-11T21:18:19.650Z,98403.34
2023-10-11T21:21:33.971Z,98395.25
2023-10-11T21:25:04.587Z,98389.63
2023-10-11T21:28:32.765Z,98385.66
2023-10-11T21:31:44.074Z,98387.00
2023-10-11T21:35:14.777Z,98369.16
2023-10-11T21:38:54.250Z,98376.59
2023-10-11T21:42:08.672Z,98376.41
2023-10-11T21:45:20.492Z,98377.06
2023-10-11T21:48:24.474Z,98370.13
2023-10-11T21:51:27.323Z,98365.13
2023-10-11T21:54:30.144Z,98374.03
2023-10-11T21:57:32.914Z,98373.03
2023-10-11T22:00:48.782Z,98367.06
2023-10-11T22:03:52.279Z,98363.78
2023-10-11T22:06:55.148Z,98358.16
2023-10-11T22:09:57.918Z,98368.41
2023-10-11T22:13:00.588Z,98358.97
2023-10-11T22:16:03.857Z,98347.94
2023-10-11T22:19:06.489Z,98342.47
2023-10-11T22:22:11.819Z,98348.25
2023-10-11T22:25:15.805Z,98345.28
2023-10-11T22:28:18.901Z,98347.25
2023-10-11T22:31:21.815Z,98351.50
2023-10-11T22:34:24.713Z,98356.78
2023-10-11T22:37:31.493Z,98350.16
2023-10-11T22:40:34.444Z,98350.06
2023-10-11T22:43:38.013Z,98354.88
2023-10-11T22:46:40.743Z,98349.88
2023-10-11T22:49:43.400Z,98354.25
2023-10-11T22:52:52.153Z,98354.75
2023-10-11T22:55:54.900Z,98355.72
2023-10-11T22:58:57.700Z,98355.38
2023-10-11T23:02:04.885Z,98355.34
2023-10-11T23:05:07.911Z,98357.94
2023-10-11T23:08:10.654Z,98352.16
2023-10-11T23:11:22.433Z,98344.63
2023-10-11T23:14:25.659Z,98352.66
2023-10-11T23:17:31.261Z,98354.28
2023-10-11T23:20:40.410Z,98358.88
2023-10-11T23:23:43.433Z,98367.34
2023-10-11T23:26:54.458Z,98365.88
2023-10-11T23:30:00.755Z,98368.47
2023-10-11T23:33:09.514Z,98354.63
2023-10-11T23:36:12.319Z,98349.53
2023-10-11T23:39:15.125Z,98345.25
2023-10-11T23:42:21.506Z,98343.63
2023-10-11T23:45:24.717Z,98344.06
2023-10-11T23:48:34.920Z,98343.72
2023-10-11T23:51:43.329Z,98337.63
2023-10-11T23:54:50.674Z,98330.88
2023-10-11T23:57:56.643Z,98334.19
